createdAt,value
2018-10-19T00:00:43.109Z,78.93
2018-10-19T00:03:10.857Z,79.48
2018-10-19T00:05:38.237Z,79.09
2018-10-19T00:08:06.968Z,79.38
2018-10-19T00:10:35.627Z,79.47
2018-10-19T00:13:03.604Z,79.14
2018-10-19T00:15:32.045Z,79.84
2018-10-19T00:18:01.332Z,79.52
2018-10-19T00:23:20.090Z,80.08
2018-10-19T00:25:49.984Z,80.05
2018-10-19T00:28:18.121Z,80.13
2018-10-19T00:30:47.523Z,80.20
2018-10-19T00:33:15.306Z,80.64
2018-10-19T00:35:44.171Z,80.54
2018-10-19T00:38:13.938Z,80.19
2018-10-19T00:40:42.640Z,80.52
2018-10-19T00:43:10.084Z,80.98
2018-10-19T00:45:43.283Z,80.61
2018-10-19T00:48:13.801Z,81.15
2018-10-19T00:50:41.660Z,80.81
2018-10-19T00:53:10.074Z,81.02
2018-10-19T00:55:38.869Z,81.10
2018-10-19T00:58:09.059Z,81.25
2018-10-19T01:00:44.430Z,81.16
2018-10-19T01:03:13.261Z,81.46
2018-10-19T01:05:41.885Z,81.13
2018-10-19T01:08:10.120Z,81.70
2018-10-19T01:10:37.632Z,81.80
2018-10-19T01:13:06.053Z,81.55
2018-10-19T01:15:34.141Z,81.72
2018-10-19T01:18:02.567Z,81.97
2018-10-19T01:20:30.095Z,81.87
2018-10-19T01:22:57.641Z,82.12
2018-10-19T01:25:27.096Z,82.15
2018-10-19T01:27:55.487Z,82.22
2018-10-19T01:30:24.065Z,82.16
2018-10-19T01:32:51.911Z,82.46
2018-10-19T01:35:19.986Z,82.68
2018-10-19T01:37:47.438Z,82.65
2018-10-19T01:40:15.084Z,82.68
2018-10-19T01:42:46.026Z,82.94
2018-10-19T01:45:15.139Z,82.88
2018-10-19T01:47:46.516Z,83.45
2018-10-19T01:50:15.481Z,83.15
2018-10-19T01:52:42.943Z,83.37
2018-10-19T01:55:11.467Z,83.86
2018-10-19T01:57:40.044Z,84.17
2018-10-19T02:00:08.479Z,83.94
2018-10-19T02:02:37.751Z,83.95
2018-10-19T02:05:07.133Z,84.11
2018-10-19T02:07:36.167Z,84.07
2018-10-19T02:10:04.417Z,84.56
2018-10-19T02:12:32.887Z,84.41
2018-10-19T02:15:00.283Z,84.14
2018-10-19T02:17:28.951Z,84.33
2018-10-19T02:19:57.041Z,84.30
2018-10-19T02:22:24.873Z,84.22
2018-10-19T02:24:53.237Z,84.09
2018-10-19T02:27:21.048Z,84.50
2018-10-19T02:29:48.446Z,83.89
2018-10-19T02:32:17.907Z,84.29
2018-10-19T02:34:45.709Z,83.79
2018-10-19T02:37:13.557Z,83.49
2018-10-19T02:39:41.472Z,83.70
2018-10-19T02:42:10.435Z,84.40
2018-10-19T02:44:38.042Z,84.31
2018-10-19T02:47:06.804Z,84.23
2018-10-19T02:49:34.403Z,84.20
2018-10-19T02:52:01.948Z,84.20
2018-10-19T02:54:30.056Z,84.79
2018-10-19T02:56:58.626Z,84.72
2018-10-19T02:59:26.445Z,84.79
2018-10-19T03:01:54.505Z,84.04
2018-10-19T03:04:23.097Z,83.96
2018-10-19T03:06:51.213Z,83.82
2018-10-19T03:09:19.856Z,83.87
2018-10-19T03:11:47.521Z,83.99
2018-10-19T03:14:15.094Z,83.63
2018-10-19T03:16:45.100Z,83.50
2018-10-19T03:19:14.147Z,83.55
2018-10-19T03:21:43.195Z,83.45
2018-10-19T03:24:11.658Z,83.25
2018-10-19T03:26:40.089Z,83.43
2018-10-19T03:29:07.769Z,83.98
2018-10-19T03:31:36.285Z,84.02
2018-10-19T03:34:05.814Z,83.65
2018-10-19T03:36:34.545Z,84.13
2018-10-19T03:39:05.417Z,83.94
2018-10-19T03:41:36.687Z,84.08
2018-10-19T03:44:05.663Z,84.58
2018-10-19T03:46:33.194Z,84.72
2018-10-19T03:49:01.902Z,84.40
2018-10-19T03:51:29.357Z,84.82
2018-10-19T03:53:59.035Z,84.41
2018-10-19T03:56:28.272Z,84.91
2018-10-19T03:58:56.651Z,84.25
2018-10-19T04:01:24.252Z,85.19
2018-10-19T04:03:53.917Z,85.26
2018-10-19T04:06:22.328Z,84.96
2018-10-19T04:08:51.076Z,85.04
2018-10-19T04:11:19.108Z,84.65
2018-10-19T04:13:46.928Z,85.23
2018-10-19T04:16:15.141Z,85.09
2018-10-19T04:18:43.172Z,85.05
2018-10-19T04:21:10.986Z,85.16
2018-10-19T04:23:39.344Z,84.34
2018-10-19T04:26:08.082Z,84.46
2018-10-19T04:28:35.841Z,84.61
2018-10-19T04:31:04.770Z,84.31
2018-10-19T04:33:32.215Z,84.40
2018-10-19T04:35:59.675Z,84.01
2018-10-19T04:38:27.547Z,83.89
2018-10-19T04:40:55.200Z,83.94
2018-10-19T04:43:23.106Z,83.63
2018-10-19T04:45:50.543Z,84.12
2018-10-19T04:48:18.473Z,83.81
2018-10-19T04:50:46.432Z,83.51
2018-10-19T04:53:14.152Z,83.68
2018-10-19T04:55:42.110Z,83.25
2018-10-19T04:58:10.608Z,83.06
2018-10-19T05:00:38.824Z,83.30
2018-10-19T05:03:06.636Z,83.70
2018-10-19T05:05:34.046Z,83.73
2018-10-19T05:08:01.476Z,83.73
2018-10-19T05:10:29.266Z,84.00
2018-10-19T05:12:57.416Z,84.21
2018-10-19T05:15:26.213Z,83.92
2018-10-19T05:17:54.783Z,83.95
2018-10-19T05:20:22.234Z,83.60
2018-10-19T05:22:51.446Z,83.85
2018-10-19T05:25:20.490Z,83.84
2018-10-19T05:27:48.617Z,84.04
2018-10-19T05:30:17.453Z,83.90
2018-10-19T05:32:51.759Z,84.19
2018-10-19T05:35:21.032Z,83.98
2018-10-19T05:38:20.295Z,83.34
2018-10-19T05:41:01.398Z,83.60
2018-10-19T05:43:32.143Z,83.19
2018-10-19T05:46:14.573Z,83.86
2018-10-19T05:48:59.033Z,83.85
2018-10-19T05:51:42.486Z,83.20
2018-10-19T05:54:24.775Z,83.38
2018-10-19T05:57:06.397Z,84.01
2018-10-19T05:59:49.956Z,84.78
2018-10-19T06:02:21.503Z,84.31
2018-10-19T06:04:50.668Z,84.96
2018-10-19T06:07:20.997Z,84.66
2018-10-19T06:09:55.930Z,85.11
2018-10-19T06:12:25.203Z,85.05
2018-10-19T06:14:56.971Z,85.38
2018-10-19T06:17:27.406Z,85.36
2018-10-19T06:20:00.832Z,85.31
2018-10-19T06:22:29.452Z,85.37
2018-10-19T06:25:03.116Z,85.07
2018-10-19T06:27:31.850Z,84.80
2018-10-19T06:30:04.036Z,84.85
2018-10-19T06:32:38.003Z,85.37
2018-10-19T06:35:13.133Z,85.03
2018-10-19T06:37:48.160Z,85.07
2018-10-19T06:40:19.838Z,85.60
2018-10-19T06:42:48.025Z,85.22
2018-10-19T06:45:16.777Z,84.88
2018-10-19T06:47:47.130Z,85.03
2018-10-19T06:50:17.191Z,84.62
2018-10-19T06:52:47.828Z,84.51
2018-10-19T06:55:19.954Z,84.62
2018-10-19T06:57:48.755Z,84.44
2018-10-19T07:00:17.231Z,84.78
2018-10-19T07:02:46.286Z,84.84
2018-10-19T07:05:15.744Z,84.82
2018-10-19T07:07:46.297Z,85.00
2018-10-19T07:10:14.933Z,84.51
2018-10-19T07:12:46.813Z,84.64
2018-10-19T07:15:17.183Z,84.49
2018-10-19T07:17:45.754Z,84.71
2018-10-19T07:20:14.692Z,84.61
2018-10-19T07:22:45.280Z,84.66
2018-10-19T07:25:14.048Z,84.42
2018-10-19T07:27:42.957Z,84.02
2018-10-19T07:30:15.463Z,84.18
2018-10-19T07:32:45.678Z,83.78
2018-10-19T07:35:14.858Z,83.13
2018-10-19T07:37:45.443Z,83.03
2018-10-19T07:40:17.530Z,83.16
2018-10-19T07:42:47.450Z,83.62
2018-10-19T07:45:16.419Z,83.47
2018-10-19T07:47:48.476Z,83.40
2018-10-19T07:50:22.021Z,82.83
2018-10-19T07:52:53.161Z,83.15
2018-10-19T07:55:24.851Z,82.83
2018-10-19T07:57:53.863Z,82.56
2018-10-19T08:00:24.794Z,83.01
2018-10-19T08:02:55.576Z,82.50
2018-10-19T08:05:26.041Z,82.44
2018-10-19T08:07:56.119Z,82.75
2018-10-19T08:10:28.031Z,83.17
2018-10-19T08:13:03.396Z,82.79
2018-10-19T08:15:32.525Z,82.16
2018-10-19T08:18:02.398Z,82.85
2018-10-19T08:20:36.340Z,82.77
2018-10-19T08:23:10.198Z,82.28
2018-10-19T08:25:41.813Z,82.03
2018-10-19T08:28:16.293Z,82.47
2018-10-19T08:30:47.259Z,82.05
2018-10-19T08:33:19.604Z,82.18
2018-10-19T08:35:47.841Z,80.97
2018-10-19T08:38:16.663Z,81.08
2018-10-19T08:40:50.132Z,81.26
2018-10-19T08:43:21.320Z,80.96
2018-10-19T08:45:55.800Z,80.67
2018-10-19T08:48:25.211Z,79.68
2018-10-19T08:50:54.183Z,79.73
2018-10-19T08:53:23.702Z,79.65
2018-10-19T08:55:56.690Z,79.56
2018-10-19T08:58:27.100Z,80.14
2018-10-19T09:00:56.296Z,79.46
2018-10-19T09:03:28.651Z,79.20
2018-10-19T09:06:03.315Z,78.78
2018-10-19T09:08:34.001Z,78.95
2018-10-19T09:11:03.585Z,78.75
2018-10-19T09:13:34.457Z,78.47
2018-10-19T09:16:05.915Z,77.62
2018-10-19T09:18:35.944Z,77.53
2018-10-19T09:21:04.748Z,77.02
2018-10-19T09:23:37.262Z,76.76
2018-10-19T09:26:07.203Z,76.49
2018-10-19T09:28:36.182Z,76.30
2018-10-19T09:31:06.321Z,75.88
2018-10-19T09:33:37.695Z,75.96
2018-10-19T09:36:10.142Z,75.50
2018-10-19T09:38:42.203Z,75.26
2018-10-19T09:41:15.130Z,74.83
2018-10-19T09:43:44.807Z,73.98
2018-10-19T09:46:20.149Z,73.41
2018-10-19T09:48:49.327Z,73.73
2018-10-19T09:51:18.844Z,72.94
2018-10-19T09:53:50.655Z,73.10
2018-10-19T09:56:26.908Z,72.62
2018-10-19T09:58:59.373Z,72.48
2018-10-19T10:01:29.210Z,72.94
2018-10-19T10:04:06.085Z,72.87
2018-10-19T10:06:37.743Z,72.94
2018-10-19T10:09:14.689Z,72.83
2018-10-19T10:11:46.681Z,72.49
2018-10-19T10:14:18.205Z,73.02
2018-10-19T10:16:46.551Z,72.32
2018-10-19T10:19:16.370Z,71.70
2018-10-19T10:21:46.423Z,70.31
2018-10-19T10:24:15.724Z,69.67
2018-10-19T10:26:45.374Z,68.91
2018-10-19T10:29:14.389Z,69.23
2018-10-19T10:31:43.742Z,68.80
2018-10-19T10:34:13.712Z,68.96
2018-10-19T10:36:46.433Z,68.70
2018-10-19T10:39:15.751Z,68.43
2018-10-19T10:41:49.497Z,66.86
2018-10-19T10:44:22.511Z,65.05
2018-10-19T10:46:51.500Z,65.10
2018-10-19T10:49:23.371Z,62.58
2018-10-19T10:51:53.036Z,63.43
2018-10-19T10:54:24.978Z,65.04
2018-10-19T10:56:54.426Z,64.32
2018-10-19T10:59:23.971Z,62.85
2018-10-19T11:01:53.325Z,62.31
2018-10-19T11:04:21.956Z,61.68
2018-10-19T11:06:50.572Z,59.07
2018-10-19T11:09:19.149Z,60.71
2018-10-19T11:11:49.494Z,61.22
2018-10-19T11:14:18.986Z,57.83
2018-10-19T11:16:47.522Z,56.26
2018-10-19T11:19:16.481Z,56.36
2018-10-19T11:21:45.263Z,52.69
2018-10-19T11:24:15.000Z,54.60
2018-10-19T11:26:43.445Z,50.63
2018-10-19T11:29:13.028Z,49.76
2018-10-19T11:31:42.556Z,50.27
2018-10-19T11:34:15.375Z,50.89
2018-10-19T11:36:44.387Z,50.47
2018-10-19T11:39:14.505Z,51.06
2018-10-19T11:41:42.861Z,51.90
2018-10-19T11:44:11.498Z,49.12
2018-10-19T11:46:39.930Z,50.45
2018-10-19T11:49:12.094Z,50.60
2018-10-19T11:51:40.896Z,50.17
2018-10-19T11:54:13.030Z,49.93
2018-10-19T11:56:42.119Z,49.76
2018-10-19T11:59:14.303Z,49.28
2018-10-19T12:01:43.343Z,48.78
2018-10-19T12:04:11.764Z,47.94
2018-10-19T12:06:41.924Z,48.62
2018-10-19T12:09:13.198Z,48.84
2018-10-19T12:11:41.625Z,49.40
2018-10-19T12:14:15.988Z,49.33
2018-10-19T12:16:46.556Z,48.41
2018-10-19T12:19:16.791Z,47.39
2018-10-19T12:21:47.848Z,48.11
2018-10-19T12:24:18.465Z,47.64
2018-10-19T12:26:48.022Z,46.55
2018-10-19T12:29:17.329Z,47.92
2018-10-19T12:31:50.098Z,47.13
2018-10-19T12:34:18.915Z,47.78
2018-10-19T12:36:50.176Z,48.01
2018-10-19T12:39:19.855Z,48.76
2018-10-19T12:41:52.280Z,49.16
2018-10-19T12:44:20.918Z,48.93
2018-10-19T12:47:00.136Z,47.94
2018-10-19T12:49:32.597Z,47.83
2018-10-19T12:52:01.399Z,49.23
2018-10-19T12:54:30.124Z,49.54
2018-10-19T12:56:59.157Z,49.29
2018-10-19T12:59:29.399Z,49.64
2018-10-19T13:02:00.205Z,49.15
2018-10-19T13:04:36.228Z,49.51
2018-10-19T13:07:08.071Z,48.80
2018-10-19T13:09:36.740Z,48.32
2018-10-19T13:12:07.635Z,50.13
2018-10-19T13:14:38.449Z,50.47
2018-10-19T13:17:07.477Z,50.19
2018-10-19T13:19:36.018Z,50.93
2018-10-19T13:22:04.401Z,50.04
2018-10-19T13:24:34.761Z,51.05
2018-10-19T13:27:03.411Z,51.10
2018-10-19T13:29:35.531Z,51.79
2018-10-19T13:32:08.914Z,52.52
2018-10-19T13:34:37.774Z,51.98
2018-10-19T13:37:12.346Z,52.97
2018-10-19T13:39:41.782Z,53.91
2018-10-19T13:42:14.821Z,53.91
2018-10-19T13:44:45.108Z,54.37
2018-10-19T13:47:16.704Z,54.14
2018-10-19T13:49:53.439Z,54.25
2018-10-19T13:52:22.446Z,55.21
2018-10-19T13:54:52.620Z,55.83
2018-10-19T13:57:21.848Z,55.60
2018-10-19T13:59:52.535Z,56.16
2018-10-19T14:02:24.381Z,56.11
2018-10-19T14:04:55.801Z,56.38
2018-10-19T14:07:24.090Z,56.45
2018-10-19T14:09:56.550Z,57.05
2018-10-19T14:12:25.354Z,56.30
2018-10-19T14:14:57.910Z,55.43
2018-10-19T14:17:34.265Z,55.57
2018-10-19T14:20:04.491Z,56.30
2018-10-19T14:22:33.109Z,56.17
2018-10-19T14:25:01.352Z,55.97
2018-10-19T14:27:30.165Z,56.05
2018-10-19T14:29:57.702Z,56.25
2018-10-19T14:32:30.657Z,57.11
2018-10-19T14:35:02.237Z,57.31
2018-10-19T14:37:31.625Z,57.13
2018-10-19T14:40:00.188Z,57.74
2018-10-19T14:42:29.042Z,56.83
2018-10-19T14:44:58.469Z,56.47
2018-10-19T14:47:28.088Z,56.62
2018-10-19T14:49:57.127Z,57.64
2018-10-19T14:52:27.004Z,57.70
2018-10-19T14:54:57.097Z,58.08
2018-10-19T14:57:28.897Z,57.57
2018-10-19T14:59:58.109Z,57.80
2018-10-19T15:02:27.922Z,57.85
2018-10-19T15:04:57.915Z,57.70
2018-10-19T15:07:27.393Z,57.24
2018-10-19T15:09:56.923Z,57.28
2018-10-19T15:12:26.949Z,57.96
2018-10-19T15:14:54.926Z,57.72
2018-10-19T15:17:28.394Z,57.93
2018-10-19T15:20:01.026Z,57.70
2018-10-19T15:22:34.546Z,57.45
2018-10-19T15:25:10.085Z,57.22
2018-10-19T15:27:40.075Z,57.81
2018-10-19T15:30:11.860Z,57.65
2018-10-19T15:32:44.549Z,57.86
2018-10-19T15:35:13.719Z,57.94
2018-10-19T15:37:41.981Z,58.53
2018-10-19T15:40:11.969Z,58.08
2018-10-19T15:42:39.990Z,57.97
2018-10-19T15:45:11.770Z,58.50
2018-10-19T15:47:43.049Z,58.09
2018-10-19T15:50:13.042Z,58.29
2018-10-19T15:52:41.859Z,58.63
2018-10-19T15:55:13.886Z,59.15
2018-10-19T15:57:42.747Z,58.70
2018-10-19T16:00:11.861Z,58.96
2018-10-19T16:02:40.226Z,58.92
2018-10-19T16:05:09.288Z,59.62
2018-10-19T16:07:38.261Z,59.55
2018-10-19T16:10:09.057Z,59.36
2018-10-19T16:12:40.658Z,59.52
2018-10-19T16:15:12.073Z,59.77
2018-10-19T16:17:40.752Z,60.34
2018-10-19T16:20:11.523Z,59.88
2018-10-19T16:22:40.765Z,59.86
2018-10-19T16:25:09.764Z,59.78
2018-10-19T16:27:38.557Z,60.41
2018-10-19T16:30:08.127Z,60.02
2018-10-19T16:32:36.757Z,60.36
2018-10-19T16:35:04.788Z,60.26
2018-10-19T16:37:32.670Z,61.27
2018-10-19T16:40:00.309Z,60.89
2018-10-19T16:42:28.130Z,61.01
2018-10-19T16:44:55.680Z,60.68
2018-10-19T16:47:23.524Z,60.68
2018-10-19T16:49:51.138Z,61.18
2018-10-19T16:52:18.787Z,60.99
2018-10-19T16:54:47.874Z,61.26
2018-10-19T16:57:15.594Z,61.88
2018-10-19T16:59:43.109Z,62.49
2018-10-19T17:02:11.368Z,62.71
2018-10-19T17:04:39.984Z,62.21
2018-10-19T17:07:09.439Z,63.12
2018-10-19T17:09:37.067Z,63.50
2018-10-19T17:12:05.315Z,63.84
2018-10-19T17:14:32.849Z,64.19
2018-10-19T17:17:02.013Z,64.59
2018-10-19T17:19:30.181Z,64.51
2018-10-19T17:21:58.351Z,64.59
2018-10-19T17:24:29.659Z,65.20
2018-10-19T17:26:57.754Z,65.19
2018-10-19T17:29:25.608Z,65.17
2018-10-19T17:31:54.376Z,65.26
2018-10-19T17:34:22.118Z,65.50
2018-10-19T17:36:49.721Z,65.82
2018-10-19T17:39:18.755Z,66.21
2018-10-19T17:41:48.769Z,66.03
2018-10-19T17:44:16.544Z,66.00
2018-10-19T17:46:44.084Z,66.48
2018-10-19T17:49:12.224Z,66.00
2018-10-19T17:51:39.752Z,66.58
2018-10-19T17:54:12.593Z,66.51
2018-10-19T17:56:41.360Z,66.76
2018-10-19T17:59:09.936Z,66.64
2018-10-19T18:01:43.990Z,67.74
2018-10-19T18:04:12.068Z,67.48
2018-10-19T18:06:39.507Z,68.25
2018-10-19T18:09:08.907Z,68.66
2018-10-19T18:11:37.146Z,68.61
2018-10-19T18:14:07.981Z,69.28
2018-10-19T18:16:38.688Z,69.63
2018-10-19T18:19:09.165Z,69.43
2018-10-19T18:21:37.339Z,69.64
2018-10-19T18:24:18.604Z,69.44
2018-10-19T18:26:48.931Z,69.71
2018-10-19T18:29:19.352Z,69.54
2018-10-19T18:31:48.856Z,69.96
2018-10-19T18:34:19.591Z,70.58
2018-10-19T18:36:48.554Z,70.76
2018-10-19T18:39:17.731Z,70.63
2018-10-19T18:41:47.276Z,71.45
2018-10-19T18:44:15.433Z,71.16
2018-10-19T18:46:45.781Z,71.65
2018-10-19T18:49:13.743Z,71.16
2018-10-19T18:51:45.981Z,71.87
2018-10-19T18:54:13.760Z,71.96
2018-10-19T18:56:42.251Z,71.79
2018-10-19T18:59:11.572Z,72.07
2018-10-19T19:01:39.822Z,71.46
2018-10-19T19:04:08.114Z,72.00
2018-10-19T19:06:38.578Z,71.49
2018-10-19T19:09:09.115Z,71.96
2018-10-19T19:11:37.121Z,71.41
2018-10-19T19:14:07.201Z,70.96
2018-10-19T19:16:36.311Z,70.66
2018-10-19T19:19:04.537Z,71.04
2018-10-19T19:21:33.549Z,71.22
2018-10-19T19:24:07.061Z,71.51
2018-10-19T19:26:36.296Z,72.10
2018-10-19T19:29:06.511Z,71.57
2018-10-19T19:31:34.455Z,71.43
2018-10-19T19:34:08.151Z,71.83
2018-10-19T19:36:35.914Z,71.47
2018-10-19T19:39:07.056Z,71.85
2018-10-19T19:41:40.958Z,71.58
2018-10-19T19:44:08.963Z,72.18
2018-10-19T19:46:36.737Z,72.01
2018-10-19T19:49:11.055Z,72.34
2018-10-19T19:51:39.532Z,72.76
2018-10-19T19:54:07.307Z,72.06
2018-10-19T19:56:35.893Z,72.46
2018-10-19T19:59:04.744Z,72.24
2018-10-19T20:01:32.953Z,71.71
2018-10-19T20:04:01.949Z,71.63
2018-10-19T20:06:30.657Z,72.15
2018-10-19T20:08:58.655Z,71.49
2018-10-19T20:11:26.380Z,71.27
2018-10-19T20:13:54.128Z,72.52
2018-10-19T20:16:22.413Z,73.26
2018-10-19T20:18:50.143Z,73.44
2018-10-19T20:21:18.790Z,74.14
2018-10-19T20:23:46.835Z,73.68
2018-10-19T20:26:15.961Z,74.19
2018-10-19T20:28:43.357Z,74.08
2018-10-19T20:31:14.206Z,74.16
2018-10-19T20:33:41.693Z,73.62
2018-10-19T20:36:09.272Z,73.31
2018-10-19T20:38:37.678Z,73.98
2018-10-19T20:41:06.175Z,73.88
2018-10-19T20:43:34.129Z,74.08
2018-10-19T20:46:01.988Z,73.74
2018-10-19T20:48:30.775Z,73.69
2018-10-19T20:50:58.312Z,73.74
2018-10-19T20:53:29.298Z,73.24
2018-10-19T20:56:00.830Z,72.17
2018-10-19T20:58:29.778Z,72.40
2018-10-19T21:00:59.144Z,72.53
2018-10-19T21:03:27.387Z,71.95
2018-10-19T21:05:56.460Z,72.39
2018-10-19T21:08:27.292Z,71.68
2018-10-19T21:10:56.148Z,71.47
2018-10-19T21:13:26.019Z,71.47
2018-10-19T21:15:54.281Z,71.80
2018-10-19T21:18:22.760Z,71.95
2018-10-19T21:20:51.557Z,71.94
2018-10-19T21:23:20.011Z,72.65
2018-10-19T21:25:48.434Z,72.47
2018-10-19T21:28:17.213Z,72.65
2018-10-19T21:30:45.988Z,72.77
2018-10-19T21:33:14.586Z,73.25
2018-10-19T21:35:43.300Z,73.05
2018-10-19T21:38:12.310Z,72.65
2018-10-19T21:40:39.977Z,73.49
2018-10-19T21:43:08.455Z,73.62
2018-10-19T21:45:36.691Z,73.58
2018-10-19T21:48:05.724Z,73.00
2018-10-19T21:50:33.618Z,73.48
2018-10-19T21:53:01.511Z,73.89
2018-10-19T21:55:29.311Z,74.12
2018-10-19T21:57:58.112Z,74.70
2018-10-19T22:00:26.320Z,74.68
2018-10-19T22:02:53.982Z,75.18
2018-10-19T22:05:22.132Z,75.08
2018-10-19T22:07:50.124Z,74.72
2018-10-19T22:10:21.600Z,75.12
2018-10-19T22:12:50.368Z,75.56
2018-10-19T22:15:17.957Z,75.19
2018-10-19T22:17:46.379Z,75.11
2018-10-19T22:20:14.577Z,75.81
2018-10-19T22:22:43.038Z,75.07
2018-10-19T22:25:10.880Z,74.81
2018-10-19T22:27:38.932Z,74.75
2018-10-19T22:30:07.711Z,75.08
2018-10-19T22:32:36.616Z,75.79
2018-10-19T22:35:04.295Z,75.81
2018-10-19T22:37:34.728Z,75.87
2018-10-19T22:40:02.921Z,76.10
2018-10-19T22:42:31.022Z,76.20
2018-10-19T22:44:59.895Z,75.87
2018-10-19T22:47:27.703Z,76.08
2018-10-19T22:49:56.913Z,76.59
2018-10-19T22:52:25.779Z,76.71
2018-10-19T22:54:53.685Z,76.74
2018-10-19T22:57:21.304Z,77.18
2018-10-19T22:59:49.527Z,77.41
2018-10-19T23:02:21.923Z,77.29
2018-10-19T23:04:49.846Z,77.66
2018-10-19T23:07:18.168Z,78.19
2018-10-19T23:09:49.038Z,78.58
2018-10-19T23:12:17.436Z,78.62
2018-10-19T23:14:46.495Z,79.18
2018-10-19T23:17:14.335Z,79.49
2018-10-19T23:19:41.944Z,79.53
2018-10-19T23:22:10.308Z,79.50
2018-10-19T23:24:38.103Z,79.77
2018-10-19T23:27:06.307Z,80.13
2018-10-19T23:29:33.956Z,80.00
2018-10-19T23:32:01.693Z,80.10
2018-10-19T23:34:29.301Z,80.89
2018-10-19T23:36:57.465Z,80.93
2018-10-19T23:39:25.959Z,81.24
2018-10-19T23:41:54.211Z,81.21
2018-10-19T23:44:21.896Z,81.33
2018-10-19T23:46:49.969Z,81.97
2018-10-19T23:49:17.620Z,82.93
2018-10-19T23:51:46.219Z,83.13
2018-10-19T23:54:14.921Z,84.35
2018-10-19T23:56:43.094Z,84.25
2018-10-19T23:59:11.313Z,84.58
